createdAt,value
2018-07-22T00:00:02.103Z,99.99
2018-07-22T00:01:02.125Z,99.99
2018-07-22T00:02:02.137Z,99.99
2018-07-22T00:03:02.154Z,99.99
2018-07-22T00:04:02.176Z,99.99
2018-07-22T00:05:02.188Z,99.99
2018-07-22T00:06:02.204Z,99.99
2018-07-22T00:07:02.223Z,99.99
2018-07-22T00:08:02.240Z,99.99
2018-07-22T00:09:02.259Z,99.99
2018-07-22T00:10:02.274Z,99.99
2018-07-22T00:11:02.298Z,99.99
2018-07-22T00:12:02.313Z,98.58
2018-07-22T00:13:02.327Z,99.99
2018-07-22T00:14:02.392Z,99.16
2018-07-22T00:15:02.358Z,99.16
2018-07-22T00:16:02.376Z,98.49
2018-07-22T00:17:02.399Z,99.99
2018-07-22T00:18:02.409Z,99.99
2018-07-22T00:19:02.425Z,99.99
2018-07-22T00:20:02.444Z,99.99
2018-07-22T00:21:02.462Z,99.99
2018-07-22T00:22:02.478Z,99.99
2018-07-22T00:23:02.494Z,99.99
2018-07-22T00:24:02.521Z,99.99
2018-07-22T00:25:02.527Z,99.99
2018-07-22T00:26:02.544Z,99.99
2018-07-22T00:27:02.568Z,99.99
2018-07-22T00:28:02.653Z,99.99
2018-07-22T00:29:02.596Z,99.99
2018-07-22T00:30:02.623Z,99.99
2018-07-22T00:31:02.630Z,99.99
2018-07-22T00:32:02.648Z,99.99
2018-07-22T00:33:02.678Z,99.99
2018-07-22T00:34:02.680Z,99.99
2018-07-22T00:35:02.697Z,99.99
2018-07-22T00:36:02.713Z,99.99
2018-07-22T00:37:02.731Z,99.99
2018-07-22T00:38:02.746Z,99.99
2018-07-22T00:39:02.765Z,99.99
2018-07-22T00:40:02.782Z,99.99
2018-07-22T00:41:02.803Z,99.99
2018-07-22T00:42:02.820Z,99.99
2018-07-22T00:43:02.832Z,99.99
2018-07-22T00:44:02.849Z,99.99
2018-07-22T00:45:02.867Z,99.99
2018-07-22T00:46:02.883Z,99.99
2018-07-22T00:47:02.899Z,99.99
2018-07-22T00:48:02.917Z,99.99
2018-07-22T00:49:02.952Z,99.99
2018-07-22T00:50:02.957Z,99.99
2018-07-22T00:51:02.988Z,99.99
2018-07-22T00:52:02.985Z,99.99
2018-07-22T00:53:03.001Z,99.99
2018-07-22T00:54:03.020Z,99.99
2018-07-22T00:55:03.037Z,99.99
2018-07-22T00:56:03.051Z,99.99
2018-07-22T00:57:03.071Z,99.99
2018-07-22T00:58:03.088Z,99.99
2018-07-22T00:59:03.152Z,99.99
2018-07-22T01:00:03.305Z,99.99
2018-07-22T01:01:03.341Z,99.99
2018-07-22T01:02:03.403Z,99.99
2018-07-22T01:03:03.180Z,99.99
2018-07-22T01:04:03.186Z,99.99
2018-07-22T01:05:03.206Z,99.99
2018-07-22T01:06:03.224Z,99.99
2018-07-22T01:07:03.235Z,99.99
2018-07-22T01:08:03.252Z,99.99
2018-07-22T01:09:03.271Z,99.99
2018-07-22T01:10:03.286Z,99.99
2018-07-22T01:11:03.707Z,99.99
2018-07-22T01:12:03.319Z,99.99
2018-07-22T01:13:03.337Z,99.99
2018-07-22T01:14:03.359Z,99.99
2018-07-22T01:15:03.393Z,99.99
2018-07-22T01:16:03.397Z,99.99
2018-07-22T01:17:03.404Z,99.99
2018-07-22T01:18:03.421Z,99.99
2018-07-22T01:19:03.436Z,99.99
2018-07-22T01:20:03.459Z,99.99
2018-07-22T01:21:03.471Z,99.99
2018-07-22T01:22:03.627Z,99.99
2018-07-22T01:23:03.519Z,99.99
2018-07-22T01:24:03.521Z,99.99
2018-07-22T01:25:03.542Z,99.99
2018-07-22T01:26:03.556Z,99.99
2018-07-22T01:27:03.570Z,99.99
2018-07-22T01:28:03.595Z,99.99
2018-07-22T01:29:03.757Z,99.99
2018-07-22T01:30:03.983Z,99.99
2018-07-22T01:31:03.645Z,99.99
2018-07-22T01:32:03.656Z,99.99
2018-07-22T01:33:03.673Z,99.99
2018-07-22T01:34:03.696Z,99.99
2018-07-22T01:35:03.702Z,99.99
2018-07-22T01:36:03.723Z,99.99
2018-07-22T01:37:03.812Z,99.99
2018-07-22T01:38:03.821Z,99.99
2018-07-22T01:39:03.771Z,99.99
2018-07-22T01:40:03.787Z,99.99
2018-07-22T01:41:03.823Z,99.99
2018-07-22T01:42:03.821Z,99.99
2018-07-22T01:43:03.835Z,99.99
2018-07-22T01:44:03.854Z,99.99
2018-07-22T01:45:03.873Z,99.99
2018-07-22T01:46:03.886Z,99.99
2018-07-22T01:47:03.903Z,99.99
2018-07-22T01:48:03.919Z,99.99
2018-07-22T01:49:03.935Z,99.99
2018-07-22T01:50:03.957Z,99.99
2018-07-22T01:51:03.968Z,99.99
2018-07-22T01:52:03.985Z,99.99
2018-07-22T01:53:04.001Z,99.99
2018-07-22T01:54:04.026Z,99.99
2018-07-22T01:55:04.034Z,99.99
2018-07-22T01:56:04.057Z,99.99
2018-07-22T01:57:04.069Z,99.99
2018-07-22T01:58:04.092Z,99.99
2018-07-22T01:59:04.103Z,99.99
2018-07-22T02:00:04.118Z,99.99
2018-07-22T02:01:04.134Z,99.99
2018-07-22T02:02:04.153Z,99.99
2018-07-22T02:03:04.174Z,99.99
2018-07-22T02:04:04.185Z,99.99
2018-07-22T02:05:04.287Z,99.99
2018-07-22T02:06:04.234Z,99.99
2018-07-22T02:07:04.257Z,99.99
2018-07-22T02:08:04.251Z,99.99
2018-07-22T02:09:04.271Z,99.99
2018-07-22T02:10:04.288Z,99.99
2018-07-22T02:11:04.314Z,99.99
2018-07-22T02:12:04.316Z,99.99
2018-07-22T02:13:04.341Z,99.99
2018-07-22T02:14:04.350Z,99.99
2018-07-22T02:15:04.366Z,99.99
2018-07-22T02:16:04.382Z,99.99
2018-07-22T02:17:04.400Z,99.99
2018-07-22T02:18:04.416Z,99.99
2018-07-22T02:19:04.435Z,99.99
2018-07-22T02:20:04.468Z,99.99
2018-07-22T02:21:04.465Z,99.99
2018-07-22T02:22:04.488Z,99.99
2018-07-22T02:23:04.510Z,99.99
2018-07-22T02:24:04.517Z,99.99
2018-07-22T02:25:04.534Z,99.99
2018-07-22T02:26:04.554Z,99.99
2018-07-22T02:27:04.566Z,99.99
2018-07-22T02:28:04.582Z,99.99
2018-07-22T02:29:04.597Z,99.99
2018-07-22T02:30:04.619Z,99.99
2018-07-22T02:31:04.638Z,99.99
2018-07-22T02:32:04.647Z,99.99
2018-07-22T02:33:04.664Z,99.99
2018-07-22T02:34:04.679Z,99.99
2018-07-22T02:35:04.696Z,99.99
2018-07-22T02:36:04.715Z,99.99
2018-07-22T02:37:04.729Z,99.99
2018-07-22T02:39:04.871Z,99.99
2018-07-22T02:40:04.885Z,99.99
2018-07-22T02:41:05.196Z,99.99
2018-07-22T02:42:04.888Z,99.99
2018-07-22T02:43:04.869Z,99.99
2018-07-22T02:44:04.850Z,99.99
2018-07-22T02:45:04.864Z,99.99
2018-07-22T02:46:04.893Z,99.99
2018-07-22T02:47:04.897Z,99.99
2018-07-22T02:48:04.910Z,99.99
2018-07-22T02:49:04.929Z,99.99
2018-07-22T02:50:04.944Z,99.99
2018-07-22T02:51:04.959Z,99.99
2018-07-22T02:52:04.976Z,99.99
2018-07-22T02:53:04.993Z,99.99
2018-07-22T02:54:05.018Z,99.99
2018-07-22T02:55:05.027Z,99.99
2018-07-22T02:56:05.049Z,99.99
2018-07-22T02:57:05.074Z,99.99
2018-07-22T02:58:05.096Z,99.99
2018-07-22T02:59:05.185Z,99.99
2018-07-22T03:00:05.150Z,99.99
2018-07-22T03:01:05.123Z,99.99
2018-07-22T03:02:05.141Z,99.99
2018-07-22T03:03:05.176Z,99.99
2018-07-22T03:04:05.171Z,99.99
2018-07-22T03:05:05.196Z,99.99
2018-07-22T03:06:05.243Z,99.99
2018-07-22T03:07:05.225Z,99.99
2018-07-22T03:08:05.251Z,99.99
2018-07-22T03:09:05.255Z,99.99
2018-07-22T03:10:05.273Z,99.99
2018-07-22T03:11:05.291Z,99.99
2018-07-22T03:12:05.304Z,99.99
2018-07-22T03:13:05.326Z,99.99
2018-07-22T03:14:05.385Z,99.99
2018-07-22T03:15:05.356Z,99.99
2018-07-22T03:16:05.376Z,99.99
2018-07-22T03:17:05.387Z,99.99
2018-07-22T03:18:05.415Z,99.99
2018-07-22T03:19:05.426Z,99.99
2018-07-22T03:20:05.437Z,99.99
2018-07-22T03:21:05.452Z,99.99
2018-07-22T03:22:05.473Z,99.99
2018-07-22T03:23:05.484Z,99.99
2018-07-22T03:24:05.505Z,99.99
2018-07-22T03:25:06.516Z,99.99
2018-07-22T03:26:05.534Z,99.99
2018-07-22T03:27:05.557Z,99.99
2018-07-22T03:28:05.567Z,99.99
2018-07-22T03:29:05.594Z,99.99
2018-07-22T03:30:05.603Z,99.99
2018-07-22T03:31:05.617Z,99.99
2018-07-22T03:32:05.655Z,99.99
2018-07-22T03:33:05.661Z,99.99
2018-07-22T03:34:05.668Z,99.99
2018-07-22T03:35:05.681Z,99.99
2018-07-22T03:36:05.696Z,99.99
2018-07-22T03:37:05.717Z,99.99
2018-07-22T03:38:05.735Z,99.99
2018-07-22T03:39:05.746Z,99.99
2018-07-22T03:40:05.780Z,99.99
2018-07-22T03:41:05.783Z,99.99
2018-07-22T03:42:05.805Z,99.99
2018-07-22T03:43:05.820Z,99.99
2018-07-22T03:45:05.871Z,99.99
2018-07-22T03:46:05.897Z,99.99
2018-07-22T03:47:05.880Z,99.99
2018-07-22T03:48:05.902Z,99.99
2018-07-22T03:49:05.916Z,99.99
2018-07-22T03:50:05.927Z,99.99
2018-07-22T03:51:05.949Z,99.99
2018-07-22T03:52:05.982Z,99.99
2018-07-22T03:53:05.983Z,99.99
2018-07-22T03:54:05.994Z,99.99
2018-07-22T03:55:06.016Z,99.99
2018-07-22T03:56:06.042Z,99.99
2018-07-22T03:57:06.051Z,99.99
2018-07-22T03:58:06.069Z,99.99
2018-07-22T03:59:06.077Z,99.99
2018-07-22T04:00:06.090Z,99.99
2018-07-22T04:01:06.286Z,99.99
2018-07-22T04:02:06.122Z,99.99
2018-07-22T04:03:06.142Z,99.99
2018-07-22T04:04:06.161Z,99.99
2018-07-22T04:05:06.665Z,99.99
2018-07-22T04:06:06.311Z,99.99
2018-07-22T04:07:06.255Z,99.99
2018-07-22T04:08:06.229Z,99.99
2018-07-22T04:09:06.239Z,99.99
2018-07-22T04:10:06.256Z,99.99
2018-07-22T04:11:06.272Z,99.99
2018-07-22T04:12:06.289Z,99.99
2018-07-22T04:13:06.308Z,99.99
2018-07-22T04:14:06.324Z,99.99
2018-07-22T04:15:06.343Z,99.99
2018-07-22T04:16:06.361Z,99.99
2018-07-22T04:17:06.369Z,99.99
2018-07-22T04:18:06.388Z,99.99
2018-07-22T04:19:06.460Z,99.99
2018-07-22T04:20:06.617Z,99.99
2018-07-22T04:21:06.436Z,99.99
2018-07-22T04:22:06.451Z,99.99
2018-07-22T04:23:06.467Z,99.99
2018-07-22T04:24:06.484Z,99.99
2018-07-22T04:25:06.508Z,99.99
2018-07-22T04:26:06.519Z,99.99
2018-07-22T04:27:06.532Z,99.99
2018-07-22T04:28:06.568Z,99.99
2018-07-22T04:29:06.570Z,99.99
2018-07-22T04:30:06.581Z,99.99
2018-07-22T04:31:06.614Z,99.99
2018-07-22T04:32:06.615Z,99.99
2018-07-22T04:33:06.634Z,99.99
2018-07-22T04:34:06.649Z,99.99
2018-07-22T04:35:06.665Z,99.99
2018-07-22T04:36:06.687Z,99.99
2018-07-22T04:37:06.707Z,99.99
2018-07-22T04:38:06.718Z,99.99
2018-07-22T04:39:06.754Z,99.99
2018-07-22T04:40:06.749Z,99.99
2018-07-22T04:41:06.765Z,99.99
2018-07-22T04:42:06.778Z,99.99
2018-07-22T04:43:06.817Z,99.99
2018-07-22T04:44:06.811Z,99.99
2018-07-22T04:45:06.828Z,99.99
2018-07-22T04:46:06.843Z,99.99
2018-07-22T04:47:06.864Z,99.99
2018-07-22T04:48:06.877Z,99.99
2018-07-22T04:50:07.074Z,99.99
2018-07-22T04:51:07.033Z,99.99
2018-07-22T04:52:06.942Z,99.99
2018-07-22T04:53:06.961Z,99.99
2018-07-22T04:54:06.975Z,99.99
2018-07-22T04:55:06.993Z,99.99
2018-07-22T04:56:07.010Z,99.99
2018-07-22T04:57:07.033Z,99.99
2018-07-22T04:58:07.060Z,99.99
2018-07-22T04:59:07.138Z,99.99
2018-07-22T05:00:07.079Z,99.99
2018-07-22T05:01:07.088Z,99.99
2018-07-22T05:02:07.110Z,99.99
2018-07-22T05:03:07.123Z,99.99
2018-07-22T05:04:07.148Z,99.99
2018-07-22T05:05:07.179Z,99.99
2018-07-22T05:06:07.170Z,99.99
2018-07-22T05:07:07.193Z,99.99
2018-07-22T05:08:07.204Z,99.99
2018-07-22T05:09:07.225Z,99.99
2018-07-22T05:10:07.238Z,99.99
2018-07-22T05:11:07.260Z,99.99
2018-07-22T05:12:07.284Z,99.99
2018-07-22T05:13:07.289Z,99.99
2018-07-22T05:14:07.312Z,99.99
2018-07-22T05:15:07.320Z,99.99
2018-07-22T05:16:07.335Z,99.99
2018-07-22T05:17:07.354Z,99.99
2018-07-22T05:18:07.375Z,99.99
2018-07-22T05:19:07.382Z,99.99
2018-07-22T05:20:07.410Z,99.99
2018-07-22T05:21:07.414Z,99.99
2018-07-22T05:22:07.435Z,99.99
2018-07-22T05:23:07.517Z,99.99
2018-07-22T05:24:07.554Z,99.99
2018-07-22T05:25:07.502Z,99.99
2018-07-22T05:26:07.514Z,99.99
2018-07-22T05:27:07.515Z,99.99
2018-07-22T05:28:07.530Z,99.99
2018-07-22T05:29:07.559Z,99.99
2018-07-22T05:30:07.565Z,99.99
2018-07-22T05:31:07.582Z,99.99
2018-07-22T05:32:07.621Z,99.99
2018-07-22T05:33:07.639Z,99.99
2018-07-22T05:34:07.631Z,99.99
2018-07-22T05:35:07.651Z,99.99
2018-07-22T05:36:07.693Z,99.99
2018-07-22T05:37:07.683Z,99.99
2018-07-22T05:38:07.785Z,99.99
2018-07-22T05:39:07.805Z,99.99
2018-07-22T05:40:07.755Z,99.99
2018-07-22T05:41:07.781Z,99.99
2018-07-22T05:42:07.805Z,99.99
2018-07-22T05:43:07.787Z,99.99
2018-07-22T05:44:07.789Z,99.99
2018-07-22T05:45:07.809Z,99.99
2018-07-22T05:46:08.269Z,99.99
2018-07-22T05:47:07.850Z,99.99
2018-07-22T05:48:07.880Z,99.99
2018-07-22T05:49:07.876Z,99.99
2018-07-22T05:50:07.884Z,99.99
2018-07-22T05:51:07.902Z,99.99
2018-07-22T05:52:07.918Z,99.99
2018-07-22T05:53:07.941Z,99.99
2018-07-22T05:54:07.954Z,99.99
2018-07-22T05:55:07.966Z,99.99
2018-07-22T05:56:07.984Z,99.99
2018-07-22T05:57:08.000Z,99.99
2018-07-22T05:58:08.098Z,99.99
2018-07-22T05:59:08.062Z,99.99
2018-07-22T06:00:08.054Z,99.99
2018-07-22T06:01:08.071Z,99.99
2018-07-22T06:02:08.094Z,99.99
2018-07-22T06:03:08.120Z,99.99
2018-07-22T06:04:08.115Z,99.99
2018-07-22T06:05:08.133Z,99.99
2018-07-22T06:06:08.148Z,99.99
2018-07-22T06:07:08.164Z,99.99
2018-07-22T06:08:08.186Z,99.99
2018-07-22T06:09:08.513Z,99.99
2018-07-22T06:10:08.230Z,99.99
2018-07-22T06:11:08.237Z,99.99
2018-07-22T06:12:08.295Z,99.99
2018-07-22T06:13:08.270Z,99.99
2018-07-22T06:14:08.278Z,99.99
2018-07-22T06:15:08.303Z,99.99
2018-07-22T06:16:08.328Z,99.99
2018-07-22T06:17:08.330Z,99.99
2018-07-22T06:18:08.345Z,99.99
2018-07-22T06:19:08.367Z,99.99
2018-07-22T06:20:08.430Z,99.99
2018-07-22T06:21:08.396Z,99.99
2018-07-22T06:22:08.413Z,99.99
2018-07-22T06:23:08.428Z,99.99
2018-07-22T06:24:08.449Z,99.99
2018-07-22T06:25:08.466Z,99.99
2018-07-22T06:26:08.477Z,99.99
2018-07-22T06:27:08.495Z,99.99
2018-07-22T06:28:08.510Z,99.99
2018-07-22T06:29:08.528Z,99.99
2018-07-22T06:30:08.543Z,99.99
2018-07-22T06:31:08.561Z,99.99
2018-07-22T06:32:08.576Z,99.99
2018-07-22T06:33:08.700Z,99.99
2018-07-22T06:34:08.675Z,99.99
2018-07-22T06:35:08.677Z,99.99
2018-07-22T06:36:08.644Z,99.99
2018-07-22T06:37:08.662Z,99.99
2018-07-22T06:38:08.687Z,99.99
2018-07-22T06:39:08.693Z,99.99
2018-07-22T06:40:08.710Z,99.99
2018-07-22T06:41:08.791Z,99.99
2018-07-22T06:42:08.749Z,99.99
2018-07-22T06:43:08.760Z,99.99
2018-07-22T06:44:08.785Z,99.73
2018-07-22T06:45:08.800Z,98.77
2018-07-22T06:46:08.859Z,99.35
2018-07-22T06:47:08.847Z,99.26
2018-07-22T06:48:08.845Z,98.68
2018-07-22T06:49:08.859Z,97.81
2018-07-22T06:50:08.874Z,97.67
2018-07-22T06:51:08.890Z,96.75
2018-07-22T06:52:08.907Z,97.71
2018-07-22T06:53:08.926Z,97.42
2018-07-22T06:54:08.955Z,97.52
2018-07-22T06:55:08.966Z,97.67
2018-07-22T06:56:08.980Z,97.57
2018-07-22T06:57:09.047Z,98.82
2018-07-22T06:58:09.006Z,97.76
2018-07-22T06:59:09.029Z,95.84
2018-07-22T07:00:09.042Z,96.12
2018-07-22T07:01:09.059Z,95.36
2018-07-22T07:02:09.074Z,95.55
2018-07-22T07:03:09.102Z,94.20
2018-07-22T07:04:09.111Z,94.68
2018-07-22T07:05:09.269Z,94.40
2018-07-22T07:06:09.140Z,94.78
2018-07-22T07:07:09.361Z,94.34
2018-07-22T07:08:09.187Z,94.73
2018-07-22T07:09:09.202Z,94.34
2018-07-22T07:10:09.213Z,93.57
2018-07-22T07:11:09.227Z,93.72
2018-07-22T07:12:09.243Z,94.06
2018-07-22T07:13:09.260Z,92.52
2018-07-22T07:14:09.279Z,93.38
2018-07-22T07:15:09.299Z,92.80
2018-07-22T07:16:09.331Z,93.00
2018-07-22T07:17:09.329Z,92.71
2018-07-22T07:18:09.344Z,92.13
2018-07-22T07:19:09.364Z,91.89
2018-07-22T07:20:09.379Z,91.75
2018-07-22T07:21:09.399Z,91.31
2018-07-22T07:22:09.412Z,91.07
2018-07-22T07:23:09.431Z,91.79
2018-07-22T07:24:09.450Z,90.83
2018-07-22T07:25:09.467Z,90.16
2018-07-22T07:26:09.482Z,89.77
2018-07-22T07:27:09.499Z,89.96
2018-07-22T07:28:09.514Z,89.86
2018-07-22T07:29:09.540Z,90.44
2018-07-22T07:30:09.567Z,89.19
2018-07-22T07:31:09.567Z,88.90
2018-07-22T07:32:09.605Z,89.09
2018-07-22T07:33:09.602Z,89.09
2018-07-22T07:34:09.630Z,89.09
2018-07-22T07:35:09.639Z,88.51
2018-07-22T07:36:09.654Z,89.09
2018-07-22T07:37:09.668Z,89.43
2018-07-22T07:38:09.686Z,88.61
2018-07-22T07:39:09.708Z,88.75
2018-07-22T07:40:09.874Z,88.08
2018-07-22T07:41:09.737Z,88.27
2018-07-22T07:42:09.980Z,88.56
2018-07-22T07:43:09.847Z,88.08
2018-07-22T07:44:10.099Z,88.46
2018-07-22T07:45:09.807Z,87.40
2018-07-22T07:46:09.829Z,86.96
2018-07-22T07:47:09.839Z,87.60
2018-07-22T07:48:09.862Z,87.35
2018-07-22T07:49:09.876Z,87.21
2018-07-22T07:50:09.895Z,87.02
2018-07-22T07:51:09.920Z,85.96
2018-07-22T07:52:09.935Z,85.77
2018-07-22T07:53:09.946Z,86.73
2018-07-22T07:54:09.969Z,87.06
2018-07-22T07:55:09.980Z,86.10
2018-07-22T07:56:09.995Z,86.39
2018-07-22T07:57:10.014Z,86.39
2018-07-22T07:58:10.032Z,86.48
2018-07-22T07:59:10.051Z,86.29
2018-07-22T08:00:10.073Z,85.23
2018-07-22T08:01:10.085Z,85.52
2018-07-22T08:02:10.106Z,86.10
2018-07-22T08:03:10.117Z,86.00
2018-07-22T08:04:10.141Z,85.23
2018-07-22T08:05:10.215Z,85.52
2018-07-22T08:06:10.175Z,85.91
2018-07-22T08:07:10.189Z,84.75
2018-07-22T08:08:10.206Z,84.50
2018-07-22T08:09:10.251Z,84.11
2018-07-22T08:10:10.244Z,84.01
2018-07-22T08:11:10.327Z,82.76
2018-07-22T08:12:10.293Z,83.53
2018-07-22T08:13:10.299Z,83.15
2018-07-22T08:14:10.313Z,82.03
2018-07-22T08:15:10.328Z,82.81
2018-07-22T08:16:10.351Z,82.13
2018-07-22T08:17:10.366Z,81.93
2018-07-22T08:18:10.384Z,81.16
2018-07-22T08:19:10.515Z,81.07
2018-07-22T08:20:10.423Z,80.58
2018-07-22T08:21:10.436Z,80.68
2018-07-22T08:22:10.542Z,79.14
2018-07-22T08:23:10.473Z,78.85
2018-07-22T08:24:10.487Z,78.27
2018-07-22T08:25:10.509Z,77.15
2018-07-22T08:26:10.563Z,75.99
2018-07-22T08:27:10.598Z,75.02
2018-07-22T08:28:10.559Z,74.16
2018-07-22T08:29:10.878Z,76.18
2018-07-22T08:30:10.598Z,75.70
2018-07-22T08:31:10.615Z,75.51
2018-07-22T08:32:10.635Z,76.09
2018-07-22T08:33:10.647Z,75.51
2018-07-22T08:34:10.665Z,75.02
2018-07-22T08:35:10.686Z,75.02
2018-07-22T08:36:10.700Z,73.86
2018-07-22T08:37:10.723Z,74.16
2018-07-22T08:38:10.768Z,73.67
2018-07-22T08:39:10.757Z,73.67
2018-07-22T08:40:10.774Z,73.28
2018-07-22T08:41:10.811Z,72.90
2018-07-22T08:42:10.808Z,73.00
2018-07-22T08:43:10.834Z,73.19
2018-07-22T08:44:10.858Z,73.67
2018-07-22T08:45:10.878Z,73.58
2018-07-22T08:46:10.882Z,71.45
2018-07-22T08:47:10.898Z,72.42
2018-07-22T08:48:10.917Z,72.55
2018-07-22T08:49:10.933Z,72.55
2018-07-22T08:50:10.952Z,72.55
2018-07-22T08:51:10.974Z,71.88
2018-07-22T08:52:10.992Z,71.30
2018-07-22T08:53:11.035Z,71.20
2018-07-22T08:54:11.028Z,70.32
2018-07-22T08:56:11.420Z,69.17
2018-07-22T08:57:12.743Z,66.85
2018-07-22T08:58:11.904Z,66.66
2018-07-22T08:59:11.176Z,66.50
2018-07-22T09:00:11.370Z,65.59
2018-07-22T09:03:12.667Z,65.63
2018-07-22T09:04:13.269Z,65.82
2018-07-22T09:06:11.379Z,64.66
2018-07-22T09:07:11.264Z,64.18
2018-07-22T09:09:12.981Z,65.53
2018-07-22T09:11:11.595Z,64.11
2018-07-22T09:12:11.388Z,62.76
2018-07-22T09:13:12.332Z,63.82
2018-07-22T09:14:13.860Z,63.53
2018-07-22T09:15:11.657Z,62.76
2018-07-22T09:16:11.938Z,62.95
2018-07-22T09:17:11.452Z,63.63
2018-07-22T09:19:11.687Z,63.37
2018-07-22T09:20:14.017Z,62.88
2018-07-22T09:22:12.227Z,61.82
2018-07-22T09:23:12.807Z,61.15
2018-07-22T09:25:12.108Z,60.47
2018-07-22T09:27:12.196Z,60.85
2018-07-22T09:28:12.040Z,60.75
2018-07-22T09:29:11.670Z,60.17
2018-07-22T09:30:11.681Z,60.66
2018-07-22T09:31:11.708Z,60.75
2018-07-22T09:32:11.718Z,60.66
2018-07-22T09:33:12.169Z,60.17
2018-07-22T09:36:12.604Z,58.85
2018-07-22T09:37:11.970Z,57.20
2018-07-22T09:38:11.841Z,58.17
2018-07-22T09:39:11.905Z,56.72
2018-07-22T09:40:11.919Z,56.56
2018-07-22T09:42:12.013Z,58.37
2018-07-22T09:43:11.923Z,57.69
2018-07-22T09:44:11.942Z,56.94
2018-07-22T09:45:12.046Z,57.11
2018-07-22T09:46:11.982Z,56.26
2018-07-22T09:47:12.001Z,57.43
2018-07-22T09:48:12.192Z,55.00
2018-07-22T09:49:12.861Z,55.10
2018-07-22T09:50:12.157Z,54.33
2018-07-22T09:51:12.078Z,55.30
2018-07-22T09:52:12.107Z,54.71
2018-07-22T09:53:12.915Z,55.40
2018-07-22T09:54:12.810Z,55.40
2018-07-22T09:56:12.759Z,55.49
2018-07-22T09:57:12.195Z,55.13
2018-07-22T09:59:12.259Z,53.87
2018-07-22T10:00:12.387Z,55.04
2018-07-22T10:01:12.809Z,55.71
2018-07-22T10:02:12.421Z,55.52
2018-07-22T10:03:12.315Z,53.97
2018-07-22T10:04:12.386Z,54.84
2018-07-22T10:05:12.339Z,54.38
2018-07-22T10:06:12.374Z,55.06
2018-07-22T10:07:13.062Z,55.06
2018-07-22T10:08:12.794Z,54.58
2018-07-22T10:09:12.466Z,53.89
2018-07-22T10:10:13.121Z,53.99
2018-07-22T10:11:12.494Z,53.12
2018-07-22T10:12:12.641Z,54.09
2018-07-22T10:13:12.721Z,53.70
2018-07-22T10:15:12.976Z,54.48
2018-07-22T10:16:13.122Z,54.58
2018-07-22T10:17:12.753Z,54.28
2018-07-22T10:18:12.945Z,55.87
2018-07-22T10:19:12.661Z,53.70
2018-07-22T10:20:12.735Z,54.45
2018-07-22T10:21:13.787Z,55.06
2018-07-22T10:22:12.664Z,55.35
2018-07-22T10:23:12.733Z,55.16
2018-07-22T10:24:12.904Z,54.90
2018-07-22T10:25:12.785Z,54.60
2018-07-22T10:26:12.747Z,54.21
2018-07-22T10:27:12.766Z,54.60
2018-07-22T10:28:12.776Z,53.83
2018-07-22T10:29:12.798Z,53.24
2018-07-22T10:30:12.818Z,54.53
2018-07-22T10:31:12.834Z,55.11
2018-07-22T10:32:12.858Z,53.75
2018-07-22T10:33:12.971Z,54.14
2018-07-22T10:34:12.957Z,55.41
2018-07-22T10:35:12.923Z,54.63
2018-07-22T10:36:14.188Z,54.34
2018-07-22T10:37:13.075Z,55.21
2018-07-22T10:38:13.181Z,53.47
2018-07-22T10:39:13.196Z,54.24
2018-07-22T10:40:13.009Z,55.11
2018-07-22T10:41:13.190Z,54.50
2018-07-22T10:42:14.363Z,55.18
2018-07-22T10:44:13.358Z,54.63
2018-07-22T10:45:15.624Z,55.11
2018-07-22T10:46:13.330Z,55.21
2018-07-22T10:47:14.028Z,54.66
2018-07-22T10:48:13.311Z,55.14
2018-07-22T10:49:14.236Z,54.94
2018-07-22T10:50:14.415Z,52.91
2018-07-22T10:51:13.923Z,53.39
2018-07-22T10:52:13.298Z,54.07
2018-07-22T10:53:13.295Z,54.46
2018-07-22T10:54:13.291Z,53.59
2018-07-22T10:55:13.303Z,54.78
2018-07-22T10:56:13.431Z,54.68
2018-07-22T10:58:14.289Z,54.58
2018-07-22T10:59:13.614Z,54.68
2018-07-22T11:00:14.061Z,54.00
2018-07-22T11:01:14.402Z,52.94
2018-07-22T11:02:14.193Z,52.45
2018-07-22T11:03:13.669Z,52.06
2018-07-22T11:04:13.709Z,53.81
2018-07-22T11:05:13.608Z,54.49
2018-07-22T11:06:13.730Z,53.81
2018-07-22T11:07:13.648Z,54.29
2018-07-22T11:08:13.564Z,54.03
2018-07-22T11:09:14.072Z,53.35
2018-07-22T11:13:13.947Z,55.07
2018-07-22T11:14:14.873Z,57.04
2018-07-22T11:15:13.923Z,55.19
2018-07-22T11:16:13.768Z,53.57
2018-07-22T11:17:13.763Z,54.05
2018-07-22T11:18:13.769Z,52.89
2018-07-22T11:19:13.788Z,52.11
2018-07-22T11:20:13.808Z,53.86
2018-07-22T11:21:13.867Z,53.93
2018-07-22T11:22:14.120Z,54.29
2018-07-22T11:23:14.338Z,54.68
2018-07-22T11:24:14.601Z,55.07
2018-07-22T11:26:14.770Z,54.29
2018-07-22T11:27:14.350Z,55.27
2018-07-22T11:28:14.263Z,54.78
2018-07-22T11:30:14.154Z,53.93
2018-07-22T11:31:14.031Z,54.13
2018-07-22T11:32:15.085Z,53.77
2018-07-22T11:33:14.072Z,51.84
2018-07-22T11:34:14.190Z,52.01
2018-07-22T11:35:14.393Z,50.07
2018-07-22T11:36:14.384Z,51.55
2018-07-22T11:37:14.485Z,52.43
2018-07-22T11:38:15.048Z,52.31
2018-07-22T11:39:14.811Z,52.40
2018-07-22T11:41:15.251Z,51.14
2018-07-22T11:42:14.878Z,51.82
2018-07-22T11:43:14.282Z,52.98
2018-07-22T11:44:14.307Z,52.79
2018-07-22T11:45:14.325Z,53.06
2018-07-22T11:46:14.381Z,53.61
2018-07-22T11:47:14.395Z,53.03
2018-07-22T11:48:14.660Z,53.52
2018-07-22T11:49:14.517Z,55.07
2018-07-22T11:50:14.508Z,54.49
2018-07-22T11:51:14.455Z,55.27
2018-07-22T11:53:15.412Z,54.88
2018-07-22T11:54:15.875Z,55.14
2018-07-22T11:55:15.105Z,55.75
2018-07-22T11:56:14.782Z,54.39
2018-07-22T11:57:14.875Z,55.27
2018-07-22T11:58:14.613Z,55.65
2018-07-22T11:59:15.274Z,56.43
2018-07-22T12:00:14.959Z,54.71
2018-07-22T12:01:15.028Z,54.71
2018-07-22T12:02:14.861Z,55.19
2018-07-22T12:03:14.750Z,52.86
2018-07-22T12:04:14.753Z,53.52
2018-07-22T12:05:14.743Z,52.15
2018-07-22T12:06:14.763Z,53.22
2018-07-22T12:07:14.879Z,54.49
2018-07-22T12:08:14.839Z,53.13
2018-07-22T12:09:14.859Z,53.22
2018-07-22T12:10:14.845Z,53.71
2018-07-22T12:12:15.821Z,53.93
2018-07-22T12:13:15.587Z,55.00
2018-07-22T12:14:15.847Z,55.39
2018-07-22T12:16:15.088Z,54.64
2018-07-22T12:18:16.864Z,51.97
2018-07-22T12:19:17.175Z,51.77
2018-07-22T12:20:15.057Z,50.12
2018-07-22T12:21:15.092Z,50.21
2018-07-22T12:22:17.037Z,53.52
2018-07-22T12:23:15.376Z,51.80
2018-07-22T12:26:15.249Z,50.63
2018-07-22T12:27:15.243Z,50.12
2018-07-22T12:29:16.304Z,52.33
2018-07-22T12:30:17.175Z,52.62
2018-07-22T12:32:15.465Z,53.16
2018-07-22T12:33:15.692Z,52.96
2018-07-22T12:34:15.623Z,53.16
2018-07-22T12:35:15.421Z,54.74
2018-07-22T12:36:16.289Z,53.64
2018-07-22T12:37:16.793Z,52.86
2018-07-22T12:38:15.564Z,53.45
2018-07-22T12:39:16.571Z,52.28
2018-07-22T12:40:16.494Z,53.16
2018-07-22T12:41:18.059Z,53.83
2018-07-22T12:43:16.012Z,52.28
2018-07-22T12:44:15.684Z,52.37
2018-07-22T12:45:15.592Z,52.09
2018-07-22T12:46:15.609Z,53.45
2018-07-22T12:47:15.630Z,52.50
2018-07-22T12:48:16.319Z,53.38
2018-07-22T12:49:15.815Z,53.79
2018-07-22T12:50:16.532Z,51.87
2018-07-22T12:51:15.845Z,50.82
2018-07-22T12:53:16.953Z,49.51
2018-07-22T12:54:15.777Z,50.19
2018-07-22T12:55:16.035Z,51.17
2018-07-22T12:56:16.647Z,50.09
2018-07-22T12:57:15.865Z,50.26
2018-07-22T12:59:17.524Z,50.43
2018-07-22T13:00:17.016Z,50.73
2018-07-22T13:01:15.939Z,52.45
2018-07-22T13:02:15.962Z,51.97
2018-07-22T13:03:15.978Z,51.77
2018-07-22T13:04:16.001Z,50.58
2018-07-22T13:05:16.024Z,50.09
2018-07-22T13:06:16.047Z,50.97
2018-07-22T13:07:16.475Z,50.97
2018-07-22T13:08:16.365Z,51.43
2018-07-22T13:09:16.124Z,52.98
2018-07-22T13:10:16.146Z,51.82
2018-07-22T13:11:16.245Z,50.75
2018-07-22T13:12:17.277Z,50.78
2018-07-22T13:13:16.212Z,53.30
2018-07-22T13:14:17.906Z,51.65
2018-07-22T13:15:19.370Z,52.23
2018-07-22T13:16:16.436Z,50.78
2018-07-22T13:17:16.700Z,50.21
2018-07-22T13:19:16.412Z,48.15
2018-07-22T13:20:16.502Z,48.36
2018-07-22T13:21:16.440Z,48.07
2018-07-22T13:22:16.393Z,49.05
2018-07-22T13:23:16.424Z,49.34
2018-07-22T13:24:16.432Z,49.39
2018-07-22T13:25:16.455Z,50.04
2018-07-22T13:26:16.539Z,44.92
2018-07-22T13:27:16.512Z,44.34
2018-07-22T13:28:16.534Z,44.73
2018-07-22T13:29:16.549Z,45.00
2018-07-22T13:30:16.639Z,46.53
2018-07-22T13:31:16.593Z,48.46